Time;durP1;ratioP1;P1;durP2;ratioP2;P2;SDS_P1;SDS_P2;PMS_P1;PMS_P2;Temp;Humidity;BMP_temperature;BMP_pressure;BME280_temperature;BME280_humidity;BME280_pressure;Samples;Min_cycle;Max_cycle;Signal;HPM_P1;HPM_P2
2022/04/25 00:01:17;;;;;;;14.95;4.28;;;12.70;85.00;;;;;;5133234;27;20035;-66
2022/04/25 00:03:43;;;;;;;7.75;4.15;;;12.70;84.80;;;;;;5133536;27;20489;-67
2022/04/25 00:06:08;;;;;;;11.85;4.63;;;12.70;84.70;;;;;;5125577;27;20122;-66
2022/04/25 00:08:34;;;;;;;14.68;4.68;;;12.80;84.70;;;;;;5128808;27;20114;-66
2022/04/25 00:11:00;;;;;;;13.45;4.55;;;12.80;84.50;;;;;;5134109;27;20027;-66
2022/04/25 00:13:26;;;;;;;5.05;2.55;;;12.80;84.40;;;;;;5132656;27;20078;-67
2022/04/25 00:15:52;;;;;;;10.23;5.20;;;12.80;84.40;;;;;;5131405;27;20115;-66
2022/04/25 00:18:18;;;;;;;10.63;4.97;;;12.80;84.40;;;;;;5133503;27;20588;-66
2022/04/25 00:20:44;;;;;;;10.30;4.18;;;12.80;84.30;;;;;;5133234;27;20031;-66
2022/04/25 00:23:10;;;;;;;11.20;4.88;;;12.90;84.40;;;;;;5133411;27;20536;-66
2022/04/25 00:25:37;;;;;;;9.63;4.97;;;12.80;84.60;;;;;;5133432;27;20027;-66
2022/04/25 00:28:04;;;;;;;10.35;4.40;;;12.80;84.70;;;;;;5132658;27;20363;-66
2022/04/25 00:30:30;;;;;;;12.40;5.28;;;12.70;84.70;;;;;;5127394;27;20592;-66
2022/04/25 00:32:57;;;;;;;12.88;5.78;;;12.80;84.90;;;;;;5126410;27;20030;-66
2022/04/25 00:35:22;;;;;;;10.13;4.65;;;12.70;84.70;;;;;;5119149;27;20523;-67
2022/04/25 00:37:49;;;;;;;10.68;5.20;;;12.70;84.60;;;;;;5119763;27;20024;-66
2022/04/25 00:40:17;;;;;;;10.93;5.50;;;12.70;84.60;;;;;;5132807;27;20125;-66
2022/04/25 00:42:43;;;;;;;14.65;5.22;;;12.70;84.50;;;;;;5131688;27;20042;-66
2022/04/25 00:45:13;;;;;;;10.68;5.38;;;12.70;84.50;;;;;;5132734;27;20031;-66
2022/04/25 00:47:39;;;;;;;11.15;5.60;;;12.70;84.50;;;;;;5121416;27;20043;-67
2022/04/25 00:50:06;;;;;;;13.95;5.47;;;12.70;84.50;;;;;;5131743;27;20091;-66
2022/04/25 00:52:33;;;;;;;12.68;5.30;;;12.70;84.50;;;;;;5131375;27;20393;-67
2022/04/25 00:55:01;;;;;;;10.48;5.57;;;12.70;84.50;;;;;;5132078;27;20019;-67
2022/04/25 00:57:27;;;;;;;14.45;5.30;;;12.70;84.50;;;;;;5130725;27;20073;-67
2022/04/25 00:59:56;;;;;;;11.82;5.20;;;12.70;84.40;;;;;;5131424;27;20027;-67
2022/04/25 01:02:22;;;;;;;9.63;5.30;;;12.70;84.40;;;;;;5131593;27;20058;-66
2022/04/25 01:04:48;;;;;;;12.75;5.65;;;12.80;84.30;;;;;;5130619;27;20118;-66
2022/04/25 01:07:14;;;;;;;18.40;6.07;;;12.70;84.30;;;;;;5131598;27;20023;-66
2022/04/25 01:09:40;;;;;;;15.48;5.57;;;12.70;84.90;;;;;;5131088;27;20019;-67
2022/04/25 01:12:06;;;;;;;17.45;5.82;;;12.70;84.20;;;;;;5131661;27;20067;-66
2022/04/25 01:14:31;;;;;;;7.38;2.92;;;12.70;84.10;;;;;;5131226;27;20045;-66
2022/04/25 01:16:57;;;;;;;17.27;5.95;;;12.70;84.10;;;;;;5131088;27;20027;-66
2022/04/25 01:19:23;;;;;;;12.60;6.35;;;12.70;84.80;;;;;;5128569;27;20470;-66
2022/04/25 01:21:57;;;;;;;10.15;5.10;;;12.70;84.50;;;;;;5115864;27;20030;-66
2022/04/25 01:27:18;;;;;;;10.20;5.35;;;12.70;85.00;;;;;;5123889;27;20031;-66
2022/04/25 01:29:45;;;;;;;12.15;5.50;;;12.60;84.70;;;;;;5131095;27;20084;-67
2022/04/25 01:32:14;;;;;;;15.00;5.70;;;12.70;84.90;;;;;;5130970;27;20059;-66
2022/04/25 01:34:40;;;;;;;10.18;4.75;;;12.60;85.00;;;;;;5131290;27;20039;-66
2022/04/25 01:37:11;;;;;;;11.32;5.00;;;12.50;85.10;;;;;;5130955;27;20068;-66
2022/04/25 01:39:45;;;;;;;9.90;5.03;;;12.50;85.20;;;;;;5129539;27;20062;-67
2022/04/25 01:42:15;;;;;;;14.60;6.68;;;12.60;85.40;;;;;;5130831;27;20375;-66
2022/04/25 01:44:41;;;;;;;12.48;5.47;;;12.50;85.40;;;;;;5130350;27;20070;-66
2022/04/25 01:47:07;;;;;;;11.57;5.88;;;12.50;85.40;;;;;;5129929;27;20410;-66
2022/04/25 01:49:34;;;;;;;12.20;5.13;;;12.50;85.30;;;;;;5130564;27;20458;-66
2022/04/25 01:52:09;;;;;;;12.25;5.95;;;12.50;85.40;;;;;;5130416;27;20386;-66
2022/04/25 01:54:35;;;;;;;11.38;5.60;;;12.50;85.50;;;;;;5126384;27;20110;-66
2022/04/25 01:57:01;;;;;;;14.10;5.35;;;12.50;85.40;;;;;;5127697;28;20576;-66
2022/04/25 01:59:27;;;;;;;11.50;6.00;;;12.50;85.50;;;;;;5129947;28;20041;-66
2022/04/25 02:01:53;;;;;;;12.20;6.25;;;12.50;85.40;;;;;;5130591;28;20019;-66
2022/04/25 02:04:19;;;;;;;13.32;5.50;;;12.50;85.40;;;;;;5128165;28;20439;-66
2022/04/25 02:06:46;;;;;;;13.00;5.40;;;12.50;85.40;;;;;;5129759;28;20027;-66
2022/04/25 02:09:13;;;;;;;9.20;5.25;;;12.50;85.40;;;;;;5130087;28;20046;-66
2022/04/25 02:11:38;;;;;;;10.68;4.88;;;12.50;85.30;;;;;;5126296;28;20031;-66
2022/04/25 02:14:07;;;;;;;11.88;5.32;;;12.50;85.20;;;;;;5129609;28;20039;-65
2022/04/25 02:16:33;;;;;;;15.63;5.30;;;12.60;85.40;;;;;;5130500;28;20469;-66
2022/04/25 02:18:58;;;;;;;12.25;4.93;;;12.50;85.60;;;;;;5130291;28;20079;-66
2022/04/25 02:21:27;;;;;;;8.38;3.55;;;12.50;85.60;;;;;;5129456;28;20034;-65
2022/04/25 02:23:53;;;;;;;9.90;4.10;;;12.50;85.90;;;;;;5130117;28;20031;-66
2022/04/25 02:26:18;;;;;;;8.85;4.30;;;12.50;85.90;;;;;;5129956;28;20056;-66
2022/04/25 02:28:47;;;;;;;9.68;4.05;;;12.40;86.00;;;;;;5121690;28;20030;-66
2022/04/25 02:31:13;;;;;;;11.85;4.13;;;12.40;86.20;;;;;;5130392;28;20039;-66
2022/04/25 02:33:41;;;;;;;10.77;4.05;;;12.30;86.10;;;;;;5130094;28;20079;-66
2022/04/25 02:36:08;;;;;;;10.07;3.53;;;12.30;86.20;;;;;;5129527;28;20463;-66
2022/04/25 02:38:35;;;;;;;8.68;3.40;;;12.30;86.10;;;;;;5130525;28;20096;-65
2022/04/25 02:41:04;;;;;;;12.15;3.55;;;12.30;86.20;;;;;;5130436;28;20027;-66
2022/04/25 02:43:34;;;;;;;6.65;3.13;;;12.30;86.30;;;;;;5129770;28;20643;-65
2022/04/25 02:46:01;;;;;;;9.98;4.43;;;12.20;86.30;;;;;;5124898;28;20019;-66
2022/04/25 02:48:28;;;;;;;10.25;4.35;;;12.20;86.30;;;;;;5128750;28;20055;-66
2022/04/25 02:50:53;;;;;;;14.85;4.93;;;12.20;86.30;;;;;;5130316;28;20460;-66
2022/04/25 02:53:19;;;;;;;20.52;4.65;;;12.30;86.30;;;;;;5131539;28;20039;-66
2022/04/25 02:55:45;;;;;;;11.98;5.05;;;12.20;86.40;;;;;;5130601;28;20030;-65
2022/04/25 02:58:11;;;;;;;13.25;4.18;;;12.20;86.30;;;;;;5133362;27;20039;-65
2022/04/25 03:00:37;;;;;;;11.38;5.28;;;12.20;86.30;;;;;;5134897;27;20412;-65
2022/04/25 03:03:03;;;;;;;10.23;4.43;;;12.20;86.50;;;;;;5132030;27;20042;-65
2022/04/25 03:05:29;;;;;;;13.18;5.32;;;12.20;86.70;;;;;;5135228;27;20035;-66
2022/04/25 03:07:54;;;;;;;9.75;4.18;;;12.10;86.90;;;;;;5134697;27;20031;-65
2022/04/25 03:10:20;;;;;;;7.32;4.05;;;12.10;87.00;;;;;;5134241;27;20062;-65
2022/04/25 03:12:46;;;;;;;10.30;4.60;;;12.10;87.00;;;;;;5134787;27;20043;-66
2022/04/25 03:15:11;;;;;;;9.07;4.50;;;12.10;87.10;;;;;;5134715;27;20758;-65
2022/04/25 03:17:38;;;;;;;10.23;4.88;;;12.00;87.20;;;;;;5127634;27;20027;-66
2022/04/25 03:20:05;;;;;;;9.18;4.07;;;12.00;86.90;;;;;;5133767;27;20030;-66
2022/04/25 03:22:31;;;;;;;7.93;4.15;;;12.00;86.80;;;;;;5134585;27;20126;-65
2022/04/25 03:24:56;;;;;;;15.25;5.28;;;12.00;86.70;;;;;;5134084;27;20427;-65
2022/04/25 03:27:23;;;;;;;10.90;5.70;;;12.00;86.80;;;;;;5133569;27;20056;-66
2022/04/25 03:29:48;;;;;;;12.55;4.80;;;12.00;86.90;;;;;;5134580;27;20097;-65
2022/04/25 03:32:15;;;;;;;9.00;3.83;;;12.00;87.00;;;;;;5119616;27;20039;-66
2022/04/25 03:34:41;;;;;;;12.77;5.55;;;12.00;86.80;;;;;;5134698;27;20489;-66
2022/04/25 03:37:08;;;;;;;12.80;5.00;;;12.00;87.00;;;;;;5134117;27;20076;-66
2022/04/25 03:39:37;;;;;;;6.95;4.13;;;11.90;87.00;;;;;;5133865;27;20047;-66
2022/04/25 03:42:03;;;;;;;10.65;5.82;;;12.00;87.20;;;;;;5134060;27;20034;-66
2022/04/25 03:44:28;;;;;;;11.65;5.30;;;12.00;87.30;;;;;;5133951;27;20386;-65
2022/04/25 03:46:54;;;;;;;9.27;5.05;;;11.90;87.40;;;;;;5133801;27;20047;-65
2022/04/25 03:49:19;;;;;;;10.00;5.00;;;11.90;87.40;;;;;;5125650;27;20032;-65
2022/04/25 03:51:45;;;;;;;10.07;5.15;;;11.90;87.40;;;;;;5129764;27;20779;-65
2022/04/25 03:54:11;;;;;;;10.25;5.30;;;11.90;87.20;;;;;;5133923;27;20039;-67
2022/04/25 03:59:21;;;;;;;7.93;3.25;;;11.90;87.00;;;;;;5121897;27;20100;-65
2022/04/25 04:01:46;;;;;;;9.48;4.65;;;11.90;86.90;;;;;;5133835;27;20466;-65
2022/04/25 04:04:12;;;;;;;11.50;5.65;;;11.90;86.70;;;;;;5125079;27;20038;-66
2022/04/25 04:06:38;;;;;;;11.63;4.95;;;11.90;86.50;;;;;;5133271;27;20035;-66
2022/04/25 04:09:44;;;;;;;9.55;5.40;;;11.90;86.40;;;;;;5133517;27;20027;-65
2022/04/25 04:11:50;;;;;;;8.52;4.47;;;11.90;86.30;;;;;;5128072;27;20081;-65
2022/04/25 04:14:15;;;;;;;10.43;5.80;;;12.00;86.40;;;;;;5125664;27;20043;-66
2022/04/25 04:16:42;;;;;;;11.15;5.03;;;11.90;86.30;;;;;;5133756;27;20110;-66
2022/04/25 04:19:08;;;;;;;9.68;4.90;;;11.90;86.50;;;;;;5133404;27;20478;-66
2022/04/25 04:21:34;;;;;;;10.52;4.93;;;12.00;86.70;;;;;;5132987;27;20055;-66
2022/04/25 04:24:01;;;;;;;11.60;5.40;;;11.90;86.60;;;;;;5133249;27;20054;-66
2022/04/25 04:26:28;;;;;;;14.25;5.47;;;11.90;86.70;;;;;;5120874;27;20043;-66
2022/04/25 04:28:56;;;;;;;7.82;4.80;;;11.90;86.70;;;;;;5119871;27;20063;-65
2022/04/25 04:31:22;;;;;;;12.20;5.60;;;11.90;86.70;;;;;;5133778;27;20042;-66
2022/04/25 04:33:47;;;;;;;10.85;5.35;;;11.90;86.70;;;;;;5132357;27;20043;-66
2022/04/25 04:36:19;;;;;;;10.30;5.45;;;11.90;86.60;;;;;;5133259;27;20031;-65
2022/04/25 04:38:45;;;;;;;13.68;4.63;;;11.90;86.70;;;;;;5133392;27;20110;-66
2022/04/25 04:41:14;;;;;;;13.20;5.13;;;11.90;86.90;;;;;;5132210;27;20019;-65
2022/04/25 04:43:40;;;;;;;13.30;5.18;;;11.90;87.20;;;;;;5120522;27;20035;-65
2022/04/25 04:46:05;;;;;;;14.73;5.63;;;11.80;87.10;;;;;;5133102;27;20363;-65
2022/04/25 04:48:31;;;;;;;10.35;5.25;;;11.80;87.10;;;;;;5132109;27;20050;-65
2022/04/25 04:50:58;;;;;;;15.70;6.35;;;11.80;87.00;;;;;;5133092;27;20091;-66
2022/04/25 04:53:23;;;;;;;13.05;5.20;;;11.80;87.00;;;;;;5132487;27;20444;-65
2022/04/25 04:55:51;;;;;;;11.13;4.90;;;11.80;87.00;;;;;;5132176;27;20027;-65
2022/04/25 04:58:18;;;;;;;11.25;5.43;;;11.80;87.10;;;;;;5133177;27;20035;-65
2022/04/25 05:00:44;;;;;;;9.80;5.22;;;11.80;87.00;;;;;;5132942;27;20056;-65
2022/04/25 05:03:16;;;;;;;13.50;5.70;;;11.80;87.00;;;;;;5123005;27;20032;-66
2022/04/25 05:05:43;;;;;;;10.38;4.70;;;11.80;86.90;;;;;;5132739;27;20416;-66
2022/04/25 05:08:09;;;;;;;10.65;5.32;;;11.80;87.00;;;;;;5132128;27;20062;-65
2022/04/25 05:10:34;;;;;;;12.43;5.63;;;11.80;87.20;;;;;;5131979;27;20120;-65
2022/04/25 05:13:03;;;;;;;10.23;4.57;;;11.80;87.20;;;;;;5132276;27;20117;-66
2022/04/25 05:15:29;;;;;;;15.20;5.20;;;11.80;87.20;;;;;;5132500;27;20415;-66
2022/04/25 05:17:55;;;;;;;14.68;5.28;;;11.80;87.10;;;;;;5128981;27;20048;-65
2022/04/25 05:20:23;;;;;;;11.95;5.05;;;11.80;87.10;;;;;;5121439;27;20439;-66
2022/04/25 05:22:49;;;;;;;13.60;5.57;;;11.80;87.00;;;;;;5132238;27;20467;-65
2022/04/25 05:25:20;;;;;;;13.25;4.28;;;11.80;87.00;;;;;;5131931;27;20023;-66
2022/04/25 05:27:47;;;;;;;8.45;4.28;;;11.80;87.10;;;;;;5127802;27;20070;-66
2022/04/25 05:30:14;;;;;;;8.60;4.10;;;11.80;87.10;;;;;;5123697;27;20031;-65
2022/04/25 05:32:44;;;;;;;8.60;4.22;;;11.80;87.20;;;;;;5131326;27;20030;-66
2022/04/25 05:35:11;;;;;;;10.73;4.40;;;11.80;87.30;;;;;;5132060;27;20497;-65
2022/04/25 05:37:38;;;;;;;9.85;4.03;;;11.80;87.70;;;;;;5131540;27;20110;-65
2022/04/25 05:40:04;;;;;;;10.18;3.33;;;11.70;87.80;;;;;;5132003;27;20474;-66
2022/04/25 05:42:30;;;;;;;16.95;4.40;;;11.70;88.10;;;;;;5119108;27;20031;-65
2022/04/25 05:44:56;;;;;;;12.77;4.60;;;11.70;88.10;;;;;;5131316;27;20532;-66
2022/04/25 05:47:21;;;;;;;8.13;3.35;;;11.70;88.20;;;;;;5132007;27;20079;-66
2022/04/25 05:52:33;;;;;;;8.32;4.18;;;11.60;88.40;;;;;;5131029;27;20046;-66
2022/04/25 05:54:58;;;;;;;10.07;4.25;;;11.60;88.60;;;;;;5131460;27;20023;-66
2022/04/25 05:57:24;;;;;;;12.48;4.40;;;11.50;88.50;;;;;;5130028;27;20390;-66
2022/04/25 05:59:51;;;;;;;9.45;4.78;;;11.60;88.70;;;;;;5129771;27;20034;-67
2022/04/25 06:02:17;;;;;;;10.05;4.25;;;11.60;88.60;;;;;;5128362;28;20030;-66
2022/04/25 06:04:43;;;;;;;15.27;4.57;;;11.50;88.60;;;;;;5130054;28;20030;-66
2022/04/25 06:07:09;;;;;;;11.70;4.70;;;11.50;88.70;;;;;;5129251;28;20034;-68
2022/04/25 06:09:34;;;;;;;12.38;4.63;;;11.50;88.90;;;;;;5129998;28;20043;-66
2022/04/25 06:12:02;;;;;;;9.32;4.75;;;11.50;88.80;;;;;;5129799;28;20035;-67
2022/04/25 06:14:31;;;;;;;9.18;4.25;;;11.50;88.60;;;;;;5129653;28;20146;-67
2022/04/25 06:16:59;;;;;;;11.48;5.15;;;11.50;88.80;;;;;;5129816;28;20136;-66
2022/04/25 06:19:25;;;;;;;9.57;3.45;;;11.50;88.70;;;;;;5129388;28;20031;-66
2022/04/25 06:21:51;;;;;;;16.83;4.00;;;11.50;89.00;;;;;;5130153;28;20035;-66
2022/04/25 06:24:17;;;;;;;9.75;4.47;;;11.50;89.10;;;;;;5127734;28;20167;-67
2022/04/25 06:26:43;;;;;;;7.53;3.67;;;11.60;89.00;;;;;;5128067;28;20076;-67
2022/04/25 06:29:08;;;;;;;8.68;3.95;;;11.50;89.00;;;;;;5128640;28;20443;-67
2022/04/25 06:31:34;;;;;;;12.35;4.10;;;11.50;88.90;;;;;;5130176;27;20054;-68
2022/04/25 06:34:00;;;;;;;14.35;4.07;;;11.60;88.90;;;;;;5131342;27;20501;-66
2022/04/25 06:36:26;;;;;;;8.38;4.10;;;11.60;88.90;;;;;;5132216;27;20027;-67
2022/04/25 06:38:52;;;;;;;7.72;3.67;;;11.60;88.90;;;;;;5132685;27;20038;-67
2022/04/25 06:41:18;;;;;;;13.23;4.55;;;11.60;89.10;;;;;;5132052;27;20060;-66
2022/04/25 06:43:46;;;;;;;8.00;3.67;;;11.60;89.10;;;;;;5130010;27;20539;-68
2022/04/25 06:46:11;;;;;;;10.23;4.07;;;11.60;89.10;;;;;;5130719;27;20109;-68
2022/04/25 06:48:40;;;;;;;8.27;3.55;;;11.50;89.70;;;;;;5129689;27;20421;-68
2022/04/25 06:51:05;;;;;;;7.38;3.70;;;11.60;89.20;;;;;;5131023;27;20035;-68
2022/04/25 06:53:31;;;;;;;9.02;3.75;;;11.50;89.10;;;;;;5130700;27;20039;-67
2022/04/25 06:55:57;;;;;;;7.75;3.63;;;11.50;89.40;;;;;;5128745;27;20035;-67
2022/04/25 06:58:23;;;;;;;8.75;3.65;;;11.50;89.90;;;;;;5129193;27;20481;-67
2022/04/25 07:00:49;;;;;;;14.75;4.30;;;11.60;89.30;;;;;;5129909;27;20032;-67
2022/04/25 07:03:15;;;;;;;7.93;3.17;;;11.60;89.00;;;;;;5129893;27;20027;-67
2022/04/25 07:05:42;;;;;;;7.85;3.30;;;11.70;89.00;;;;;;5128917;27;20030;-67
2022/04/25 07:08:08;;;;;;;10.77;3.05;;;11.70;88.80;;;;;;5128511;27;20030;-67
2022/04/25 07:10:34;;;;;;;3.33;1.92;;;11.70;88.70;;;;;;5128968;27;20031;-68
2022/04/25 07:12:59;;;;;;;12.68;3.22;;;11.70;88.40;;;;;;5127534;27;20039;-67
2022/04/25 07:15:25;;;;;;;4.78;2.70;;;11.70;88.30;;;;;;5128784;27;20027;-67
2022/04/25 07:17:55;;;;;;;7.80;2.67;;;11.70;88.20;;;;;;5129904;27;20501;-65
2022/04/25 07:20:22;;;;;;;9.63;3.30;;;11.70;88.30;;;;;;5130976;27;20043;-66
2022/04/25 07:31:02;;;;;;;11.77;3.45;;;11.80;87.50;;;;;;5128274;27;20026;-68
2022/04/25 07:33:27;;;;;;;8.60;3.53;;;11.80;87.60;;;;;;5129663;27;20435;-67
2022/04/25 07:35:54;;;;;;;5.45;3.10;;;11.80;87.50;;;;;;5129272;27;20058;-67
2022/04/25 07:38:19;;;;;;;13.80;3.80;;;11.90;87.90;;;;;;5131454;27;20027;-67
2022/04/25 07:40:45;;;;;;;9.75;3.08;;;11.80;87.60;;;;;;5130016;27;20023;-67
2022/04/25 07:43:11;;;;;;;4.80;2.10;;;11.80;87.50;;;;;;5128059;27;20035;-67
2022/04/25 07:45:37;;;;;;;10.30;3.45;;;11.80;87.50;;;;;;5127793;27;20577;-68
2022/04/25 07:48:03;;;;;;;8.00;3.05;;;11.80;87.30;;;;;;5128225;27;20046;-67
2022/04/25 07:50:29;;;;;;;10.25;3.45;;;11.80;87.60;;;;;;5129846;27;20482;-67
2022/04/25 07:52:55;;;;;;;5.45;2.83;;;11.80;87.50;;;;;;5129548;27;20064;-68
2022/04/25 07:55:20;;;;;;;4.93;2.78;;;11.90;87.60;;;;;;5130844;27;20023;-68
2022/04/25 07:57:46;;;;;;;10.55;2.97;;;11.90;87.60;;;;;;5128874;27;20223;-65
2022/04/25 08:00:13;;;;;;;8.20;3.38;;;11.90;87.60;;;;;;5129226;27;20402;-65
2022/04/25 08:02:38;;;;;;;5.47;2.40;;;12.00;87.30;;;;;;5129027;27;20418;-65
2022/04/25 08:05:04;;;;;;;11.00;3.22;;;12.00;87.10;;;;;;5129103;27;20063;-66
2022/04/25 08:07:30;;;;;;;4.47;2.20;;;12.00;87.20;;;;;;5130656;27;20054;-66
2022/04/25 08:09:56;;;;;;;7.32;2.75;;;12.00;87.20;;;;;;5130018;27;20500;-66
2022/04/25 08:18:00;;;;;;;7.85;3.15;;;12.10;88.20;;;;;;5129809;27;20104;-66
2022/04/25 08:20:36;;;;;;;5.38;2.70;;;12.10;88.10;;;;;;5122154;27;20041;-66
2022/04/25 08:23:04;;;;;;;6.57;2.88;;;12.10;88.30;;;;;;5127529;27;20030;-66
2022/04/25 08:25:30;;;;;;;8.93;3.08;;;12.10;88.20;;;;;;5128303;27;20062;-66
2022/04/25 08:27:57;;;;;;;6.88;3.20;;;12.20;87.90;;;;;;5126793;27;20363;-68
2022/04/25 08:30:23;;;;;;;7.70;3.88;;;12.20;87.90;;;;;;5127795;27;20042;-67
2022/04/25 08:32:49;;;;;;;2.83;2.00;;;12.20;87.90;;;;;;5127685;27;20394;-67
2022/04/25 08:35:15;;;;;;;4.85;3.13;;;12.20;87.60;;;;;;5127549;27;20453;-67
2022/04/25 08:37:42;;;;;;;9.38;3.50;;;12.20;87.20;;;;;;5128248;27;20046;-67
2022/04/25 08:40:08;;;;;;;13.30;3.30;;;12.30;87.60;;;;;;5127363;27;20023;-68
2022/04/25 08:42:35;;;;;;;5.30;2.78;;;12.30;87.70;;;;;;5128258;27;20042;-67
2022/04/25 08:45:05;;;;;;;9.27;3.15;;;12.40;87.60;;;;;;5129883;27;20031;-66
2022/04/25 08:47:39;;;;;;;10.32;2.97;;;12.40;87.40;;;;;;5130221;27;20050;-65
2022/04/25 08:50:05;;;;;;;6.05;3.10;;;12.40;87.70;;;;;;5129661;27;20113;-67
2022/04/25 08:52:32;;;;;;;5.80;2.22;;;12.50;88.00;;;;;;5129599;27;20127;-67
2022/04/25 08:54:58;;;;;;;7.00;2.33;;;12.50;88.40;;;;;;5125064;27;20031;-67
2022/04/25 08:57:28;;;;;;;4.97;2.33;;;12.50;88.10;;;;;;5127292;27;20030;-67
2022/04/25 08:59:56;;;;;;;6.95;2.95;;;12.50;87.90;;;;;;5126907;27;20031;-67
2022/04/25 09:02:22;;;;;;;4.05;1.52;;;12.50;88.00;;;;;;5125363;27;20030;-67
2022/04/25 09:04:49;;;;;;;5.10;2.90;;;12.60;88.20;;;;;;5127083;27;20027;-66
2022/04/25 09:07:18;;;;;;;6.25;3.15;;;12.60;87.80;;;;;;5127060;27;20542;-66
2022/04/25 09:09:45;;;;;;;9.45;2.78;;;12.60;87.10;;;;;;5126177;27;20385;-68
2022/04/25 09:12:14;;;;;;;8.95;3.30;;;12.70;87.20;;;;;;5129716;27;20023;-67
2022/04/25 09:14:42;;;;;;;4.28;2.55;;;12.70;87.50;;;;;;5127608;27;20599;-66
2022/04/25 09:17:08;;;;;;;5.55;2.33;;;12.70;87.70;;;;;;5125076;27;20371;-67
2022/04/25 09:19:34;;;;;;;6.93;2.80;;;12.70;88.00;;;;;;5126088;27;20031;-65
2022/04/25 09:22:03;;;;;;;8.60;2.63;;;12.80;87.80;;;;;;5125028;27;20031;-66
2022/04/25 09:24:32;;;;;;;7.03;2.92;;;12.70;87.60;;;;;;5127965;27;20470;-65
2022/04/25 09:27:10;;;;;;;7.10;2.58;;;12.80;87.50;;;;;;5128142;27;20555;-65
2022/04/25 09:29:37;;;;;;;8.00;2.60;;;12.80;87.90;;;;;;5124155;27;20027;-66
2022/04/25 09:32:03;;;;;;;6.85;2.50;;;12.90;88.30;;;;;;5129373;27;20027;-66
2022/04/25 09:37:16;;;;;;;5.07;2.17;;;12.90;88.70;;;;;;5126188;27;20088;-66
2022/04/25 09:39:42;;;;;;;9.20;2.70;;;12.90;88.80;;;;;;5130703;27;20027;-65
2022/04/25 09:42:08;;;;;;;4.78;2.58;;;12.90;88.80;;;;;;5131868;27;20031;-67
2022/04/25 09:44:57;;;;;;;8.05;2.63;;;12.90;88.70;;;;;;5130901;27;20047;-66
2022/04/25 09:47:30;;;;;;;9.40;2.95;;;13.00;88.70;;;;;;5131373;27;20070;-66
2022/04/25 09:50:10;;;;;;;6.18;2.67;;;12.90;88.60;;;;;;5126810;27;20544;-66
2022/04/25 09:52:54;;;;;;;6.18;2.88;;;13.00;88.90;;;;;;5119634;27;20066;-67
2022/04/25 09:55:20;;;;;;;;;;;13.00;88.80;;;;;;5131408;27;20034;-66
2022/04/25 09:57:46;;;;;;;5.63;2.67;;;13.00;89.60;;;;;;5130982;27;20410;-67
2022/04/25 10:00:28;;;;;;;3.85;2.45;;;13.10;89.40;;;;;;5120577;27;20044;-68
2022/04/25 10:02:54;;;;;;;4.15;2.05;;;13.10;89.50;;;;;;5112273;28;20039;-67
2022/04/25 10:05:20;;;;;;;7.70;2.38;;;13.10;89.70;;;;;;5123760;28;20046;-67
2022/04/25 10:07:47;;;;;;;3.40;1.88;;;13.10;89.90;;;;;;5118797;28;20020;-66
2022/04/25 10:10:12;;;;;;;7.63;2.97;;;13.20;90.00;;;;;;5131346;28;20697;-67
2022/04/25 10:12:39;;;;;;;7.80;2.58;;;13.20;89.70;;;;;;5129207;28;20035;-67
2022/04/25 10:15:07;;;;;;;3.35;2.35;;;13.20;90.00;;;;;;5127679;28;20054;-67
2022/04/25 10:17:37;;;;;;;7.15;2.80;;;13.30;89.90;;;;;;5131139;28;20035;-67
2022/04/25 10:20:03;;;;;;;10.40;2.15;;;13.40;89.60;;;;;;5131130;28;20118;-66
2022/04/25 10:22:29;;;;;;;6.20;2.20;;;13.40;89.30;;;;;;5131199;28;20494;-65
2022/04/25 10:24:55;;;;;;;6.07;2.58;;;13.50;89.50;;;;;;5130462;28;20033;-65
2022/04/25 10:27:27;;;;;;;3.47;1.92;;;13.50;89.10;;;;;;5129080;28;20043;-65
2022/04/25 10:29:56;;;;;;;5.78;2.22;;;13.60;89.00;;;;;;5127568;28;20027;-65
2022/04/25 10:32:23;;;;;;;4.82;2.38;;;13.60;87.90;;;;;;5130448;28;20541;-65
2022/04/25 10:34:56;;;;;;;4.55;2.15;;;13.60;88.40;;;;;;5131179;28;20050;-65
2022/04/25 10:37:32;;;;;;;3.65;2.20;;;13.70;88.80;;;;;;5118238;28;20031;-65
2022/04/25 10:40:00;;;;;;;7.03;2.67;;;13.80;88.80;;;;;;5130308;28;20691;-65
2022/04/25 10:45:13;;;;;;;5.00;2.47;;;13.90;88.20;;;;;;5130893;28;20047;-65
2022/04/25 10:47:57;;;;;;;3.03;2.08;;;13.90;87.90;;;;;;5130502;28;20047;-65
2022/04/25 10:50:23;;;;;;;5.47;1.95;;;13.90;87.40;;;;;;5112331;28;20403;-66
2022/04/25 10:55:31;;;;;;;7.75;2.55;;;13.90;87.40;;;;;;5130244;28;20443;-66
2022/04/25 10:58:03;;;;;;;6.78;2.35;;;14.00;87.80;;;;;;5129470;28;20023;-66
2022/04/25 11:00:37;;;;;;;3.33;1.80;;;14.00;87.70;;;;;;5122976;28;20470;-66
2022/04/25 11:03:05;;;;;;;6.63;2.47;;;14.10;88.40;;;;;;5128458;28;20489;-66
2022/04/25 11:05:31;;;;;;;7.43;2.03;;;14.00;87.80;;;;;;5128698;28;20031;-66
2022/04/25 11:08:15;;;;;;;6.47;3.00;;;14.00;88.50;;;;;;5128487;28;20503;-66
2022/04/25 11:10:43;;;;;;;4.78;2.45;;;14.10;88.90;;;;;;5128234;28;20075;-66
2022/04/25 11:13:12;;;;;;;9.75;3.05;;;14.10;89.10;;;;;;5125773;28;20039;-66
2022/04/25 11:15:45;;;;;;;3.40;1.90;;;14.10;89.30;;;;;;5123900;28;20035;-66
2022/04/25 11:18:34;;;;;;;5.57;2.15;;;14.20;89.20;;;;;;5121746;27;20078;-66
2022/04/25 11:21:07;;;;;;;11.13;3.33;;;14.20;89.30;;;;;;5128323;27;20035;-67
2022/04/25 11:23:35;;;;;;;5.80;3.10;;;14.30;89.40;;;;;;5125889;27;20055;-67
2022/04/25 11:26:04;;;;;;;6.15;3.42;;;14.30;89.30;;;;;;5129141;27;20039;-67
2022/04/25 11:28:30;;;;;;;5.57;2.60;;;14.20;89.20;;;;;;5125592;27;20024;-65
2022/04/25 11:31:17;;;;;;;5.07;2.42;;;14.30;89.30;;;;;;5130556;27;20489;-65
2022/04/25 11:33:44;;;;;;;9.60;3.65;;;14.20;89.50;;;;;;5132642;27;20047;-66
2022/04/25 11:36:13;;;;;;;6.68;3.00;;;14.30;89.00;;;;;;5132790;27;20027;-67
2022/04/25 11:41:32;;;;;;;6.28;2.50;;;14.40;89.20;;;;;;5131269;27;20378;-67
2022/04/25 11:43:58;;;;;;;4.80;1.95;;;14.40;89.20;;;;;;5130912;27;20031;-67
2022/04/25 11:46:28;;;;;;;7.05;2.50;;;14.40;89.30;;;;;;5131907;27;20043;-68
2022/04/25 11:48:55;;;;;;;4.78;2.42;;;14.50;89.40;;;;;;5129470;27;20066;-69
2022/04/25 11:51:29;;;;;;;3.78;2.28;;;14.50;88.90;;;;;;5130676;27;20035;-69
2022/04/25 11:54:06;;;;;;;9.63;2.95;;;14.50;89.00;;;;;;5128380;27;20046;-69
2022/04/25 11:56:33;;;;;;;7.47;3.10;;;14.50;88.40;;;;;;5131756;27;20019;-69
2022/04/25 11:59:05;;;;;;;4.90;2.60;;;14.50;87.90;;;;;;5130957;27;20027;-69
2022/04/25 12:01:35;;;;;;;11.18;2.38;;;14.50;88.10;;;;;;5131466;27;20019;-68
2022/04/25 12:04:21;;;;;;;8.02;3.10;;;14.50;88.30;;;;;;5130475;27;20525;-69
2022/04/25 12:07:04;;;;;;;5.47;3.10;;;14.60;88.10;;;;;;5130806;27;21372;-69
2022/04/25 12:15:34;;;;;;;3.75;2.40;;;14.60;87.90;;;;;;5130886;27;20077;-68
2022/04/25 12:18:26;;;;;;;9.75;3.00;;;14.60;87.70;;;;;;5130728;27;20038;-68
2022/04/25 12:20:59;;;;;;;7.85;2.65;;;14.60;88.10;;;;;;5128638;27;20027;-69
2022/04/25 12:23:26;;;;;;;4.38;2.13;;;14.70;88.20;;;;;;5131413;27;20631;-69
2022/04/25 12:25:53;;;;;;;2.92;1.80;;;14.70;87.90;;;;;;5130827;27;20439;-69
2022/04/25 12:28:20;;;;;;;6.82;3.30;;;14.70;87.90;;;;;;5130942;27;20066;-68
2022/04/25 12:30:50;;;;;;;13.18;3.22;;;14.70;88.00;;;;;;5130853;27;20462;-68
2022/04/25 12:33:25;;;;;;;6.78;2.42;;;14.70;87.20;;;;;;5127651;27;20502;-69
2022/04/25 12:36:08;;;;;;;6.80;3.22;;;14.70;87.70;;;;;;5130706;27;20035;-69
2022/04/25 12:38:37;;;;;;;3.60;2.47;;;14.80;87.50;;;;;;5128384;27;20042;-68
2022/04/25 12:41:04;;;;;;;9.07;2.95;;;14.80;87.60;;;;;;5130415;27;20031;-68
2022/04/25 12:43:37;;;;;;;6.40;2.28;;;14.80;87.20;;;;;;5128718;27;20061;-69
2022/04/25 12:46:03;;;;;;;6.75;2.55;;;14.90;87.40;;;;;;5130056;27;20023;-69
2022/04/25 12:48:29;;;;;;;5.88;2.28;;;14.90;87.60;;;;;;5130555;27;20043;-69
2022/04/25 12:50:54;;;;;;;9.00;3.05;;;15.00;87.40;;;;;;5131286;27;20115;-68
2022/04/25 12:53:40;;;;;;;9.45;2.92;;;15.00;87.20;;;;;;5129483;27;20747;-68
2022/04/25 12:56:05;;;;;;;13.15;3.58;;;15.00;87.20;;;;;;5127681;27;20027;-68
2022/04/25 12:58:34;;;;;;;8.05;3.13;;;15.10;86.80;;;;;;5130289;27;20068;-69
2022/04/25 13:01:00;;;;;;;6.93;3.05;;;15.10;87.00;;;;;;5129039;27;20043;-69
2022/04/25 13:03:26;;;;;;;9.23;3.58;;;15.10;87.00;;;;;;5129819;27;20042;-69
2022/04/25 13:05:53;;;;;;;8.65;3.60;;;15.20;86.90;;;;;;5127900;27;20084;-70
2022/04/25 13:08:20;;;;;;;10.73;3.30;;;15.10;86.80;;;;;;5123337;27;20031;-69
2022/04/25 13:10:45;;;;;;;6.70;2.97;;;15.20;87.00;;;;;;5110880;27;20745;-69
2022/04/25 13:13:11;;;;;;;10.07;3.88;;;15.20;86.80;;;;;;5126914;27;20062;-69
2022/04/25 13:15:38;;;;;;;7.13;3.20;;;15.20;85.90;;;;;;5125445;27;20023;-69
2022/04/25 13:18:05;;;;;;;6.18;3.03;;;15.20;86.30;;;;;;5125848;27;20038;-69
2022/04/25 13:20:40;;;;;;;9.98;3.58;;;15.20;86.30;;;;;;5122650;27;20019;-69
2022/04/25 13:23:07;;;;;;;9.45;3.85;;;15.20;86.30;;;;;;5122457;27;20118;-69
2022/04/25 13:25:32;;;;;;;7.97;3.60;;;15.20;86.30;;;;;;5125005;27;20084;-69